Monday, October 16, 2017, 6:03 PM EDT
Back to Local

KOWD, Norwood Memorial Airport

Location: Norwood, MA, United States Lat: 42.183
Local Time: 6:03 PM EDT (22:03 GMT) Lon: -71.167
Time Zone: US/Eastern Elev: 49 ft

Show me the last for .
Show Decoded

2017-10-16 16:53 METAR KOWD 162053Z 31006KT 10SM CLR 13/05 A2999 RMK AO2 SLP155 T01280050 53017 =
2017-10-16 15:53 METAR KOWD 161953Z 32008KT 10SM CLR 13/04 A2997 RMK AO2 SLP148 T01330044 =
2017-10-16 14:53 METAR KOWD 161853Z 33008KT 10SM CLR 14/05 A2995 RMK AO2 SLP140 T01390050 =
2017-10-16 13:53 METAR KOWD 161753Z 31010KT 10SM CLR 16/06 A2994 RMK AO2 SLP138 T01560061 10172
                 20150 53005 =
2017-10-16 12:53 METAR KOWD 161653Z 32009KT 10SM FEW035 16/07 A2993 RMK AO2 SLP135 T01610072 =
2017-10-16 11:53 METAR KOWD 161553Z 29012G18KT 10SM FEW037 17/07 A2993 RMK AO2 SLP134 T01670072 =
2017-10-16 10:53 METAR KOWD 161453Z 30013G17KT 10SM BKN039 17/07 A2993 RMK AO2 SLP133 T01670072
                 51033 =
2017-10-16 09:53 METAR KOWD 161353Z 29008KT 10SM FEW120 17/09 A2987 RMK AO2 SLP115 T01670094 =
2017-10-16 08:53 METAR KOWD 161253Z 28008G15KT 10SM CLR 17/09 A2988 RMK AO2 SLP119 T01670089 =
2017-10-16 07:53 METAR KOWD 161153Z 29007KT 10SM CLR 17/09 A2983 RMK AO2 SLP100 60000 T01670089
                 10222 20167 53023 =
2017-10-16 06:53 METAR KOWD 161053Z 28010KT 10SM BKN110 17/11 A2979 RMK AO2 SLP088 T01720106 =
2017-10-16 05:53 METAR KOWD 160953Z AUTO 29011G15KT 10SM OVC095 18/14 A2978 RMK AO2 SLP083
                 T01830139 =
2017-10-16 04:53 METAR KOWD 160853Z AUTO 26007KT 10SM OVC036 19/14 A2976 RMK AO2 SLP077 60000
                 T01890144 53007 =
2017-10-16 03:53 METAR KOWD 160753Z AUTO 24007KT 10SM OVC032 19/17 A2974 RMK AO2 SLP071 T01940167
                 =
2017-10-16 03:35 METAR KOWD 160735Z AUTO 24008KT 10SM SCT028 BKN036 OVC048 20/18 A2974 RMK AO2
                 T02000178 =
2017-10-16 02:53 METAR KOWD 160653Z AUTO 24006KT 9SM BKN026 OVC060 21/18 A2973 RMK AO2 RAB07E40
                 SLP068 P0000 T02060183 =
2017-10-16 02:01 METAR KOWD 160601Z AUTO 21010KT 10SM FEW026 BKN032 OVC050 22/17 A2974 RMK AO2
                 T02220172 =
2017-10-16 01:53 METAR KOWD 160553Z AUTO 23011KT 10SM BKN024 OVC036 22/17 A2974 RMK AO2 SLP070
                 T02220172 10222 20217 53003 =
2017-10-16 00:53 METAR KOWD 160453Z AUTO 22009G18KT 10SM OVC022 22/17 A2972 RMK AO2 SLP065
                 T02170172 402500144 =
2017-10-15 23:53 METAR KOWD 160353Z AUTO 22010G19KT 10SM OVC021 22/18 A2972 RMK AO2 SLP065
                 T02170178 =
2017-10-15 22:53 METAR KOWD 160253Z AUTO 21010KT 10SM OVC022 22/17 A2973 RMK AO2 SLP067 T02220172
                 56007 =
2017-10-15 21:53 METAR KOWD 160153Z 21011G19KT 10SM OVC021 22/18 A2974 RMK AO2 SLP070 T02170178 =
2017-10-15 20:53 METAR KOWD 160053Z 20012KT 10SM OVC019 22/18 A2973 RMK AO2 SLP068 T02170178 =
2017-10-15 19:53 METAR KOWD 152353Z 20016G22KT 10SM OVC020 22/18 A2975 RMK AO2 SLP074 T02170178
                 10250 20217 56017 =
2017-10-15 18:53 METAR KOWD 152253Z 19011KT 10SM OVC022 22/18 A2976 RMK AO2 SLP078 T02170178 =
2017-10-15 18:33 METAR KOWD 152233Z 20010KT 10SM BKN022 22/18 A2977 RMK AO2 T02170178 =

Support USWX by starting your Amazon purchase here.